Time;durP1;ratioP1;P1;durP2;ratioP2;P2;SDS_P1;SDS_P2;PMS_P1;PMS_P2;Temp;Humidity;BMP_temperature;BMP_pressure;BME280_temperature;BME280_humidity;BME280_pressure;Samples;Min_cycle;Max_cycle;Signal;HPM_P1;HPM_P2
2022/01/17 00:01:37;;;;;;;3.05;2.25;;;23.20;49.90;;;;;;4938828;29;20264;-71
2022/01/17 00:04:03;;;;;;;2.50;2.30;;;23.20;49.90;;;;;;4954532;29;20190;-71
2022/01/17 00:06:28;;;;;;;3.05;2.30;;;23.20;49.90;;;;;;4938368;29;20203;-71
2022/01/17 00:08:54;;;;;;;2.30;2.20;;;23.20;49.90;;;;;;4938516;29;20256;-71
2022/01/17 00:11:20;;;;;;;2.50;2.30;;;23.20;49.90;;;;;;4922550;29;20304;-71
2022/01/17 00:13:48;;;;;;;2.55;2.35;;;23.20;49.90;;;;;;4938505;29;20234;-71
2022/01/17 00:16:20;;;;;;;2.92;2.63;;;23.30;50.00;;;;;;4938052;29;20182;-71
2022/01/17 00:21:15;;;;;;;3.00;2.80;;;23.20;49.80;;;;;;4938214;29;20226;-71
2022/01/17 00:23:41;;;;;;;2.80;2.60;;;23.20;49.90;;;;;;4938207;29;20278;-71
2022/01/17 00:26:07;;;;;;;2.85;2.65;;;23.20;49.80;;;;;;4921922;29;20205;-71
2022/01/17 00:28:33;;;;;;;3.35;2.50;;;23.20;49.80;;;;;;4938233;29;20223;-71
2022/01/17 00:31:04;;;;;;;2.72;2.53;;;23.20;49.80;;;;;;4938172;29;20249;-71
2022/01/17 00:33:34;;;;;;;2.90;2.70;;;23.20;49.80;;;;;;4954148;29;20182;-71
2022/01/17 00:36:00;;;;;;;2.65;2.45;;;23.20;49.80;;;;;;4937725;29;20189;-71
2022/01/17 00:38:27;;;;;;;2.47;2.17;;;23.20;49.80;;;;;;4954703;29;20258;-71
2022/01/17 00:40:52;;;;;;;2.50;2.30;;;23.20;49.70;;;;;;4937959;29;20202;-71
2022/01/17 00:43:18;;;;;;;2.47;2.28;;;23.20;49.80;;;;;;4937815;29;20194;-71
2022/01/17 00:45:45;;;;;;;2.75;2.55;;;23.20;49.80;;;;;;4937366;29;20197;-71
2022/01/17 00:48:12;;;;;;;2.60;2.40;;;23.20;49.70;;;;;;4934335;29;20206;-71
2022/01/17 00:50:39;;;;;;;2.30;2.20;;;23.20;49.60;;;;;;4934369;29;20215;-71
2022/01/17 00:53:08;;;;;;;2.47;2.28;;;23.30;49.70;;;;;;4935452;29;20191;-71
2022/01/17 00:55:36;;;;;;;3.13;2.50;;;23.30;49.60;;;;;;4934372;29;20278;-71
2022/01/17 00:58:03;;;;;;;5.43;2.75;;;23.30;49.60;;;;;;4933812;29;20222;-71
2022/01/17 01:00:29;;;;;;;2.88;2.55;;;23.30;49.60;;;;;;4950361;29;20219;-71
2022/01/17 01:02:56;;;;;;;2.90;2.70;;;23.30;49.60;;;;;;4934310;28;20202;-71
2022/01/17 01:05:22;;;;;;;2.75;2.55;;;23.30;49.50;;;;;;4934359;29;20203;-71
2022/01/17 01:07:48;;;;;;;2.38;2.17;;;23.30;49.60;;;;;;4934204;29;20191;-71
2022/01/17 01:10:15;;;;;;;2.83;2.63;;;23.20;49.50;;;;;;4934139;29;20218;-71
2022/01/17 01:12:45;;;;;;;2.75;2.55;;;23.20;49.50;;;;;;4949992;29;20196;-71
2022/01/17 01:15:19;;;;;;;2.67;2.47;;;23.30;49.60;;;;;;4934123;28;20659;-71
2022/01/17 01:17:55;;;;;;;2.78;2.35;;;23.20;49.50;;;;;;4950084;29;20711;-72
2022/01/17 01:21:02;;;;;;;2.40;2.20;;;23.20;49.50;;;;;;4949817;29;20712;-71
2022/01/17 01:28:48;;;;;;;2.70;2.50;;;23.20;49.50;;;;;;4949984;29;20269;-71
2022/01/17 01:31:19;;;;;;;3.42;2.75;;;23.30;49.50;;;;;;4972822;23;20230;-67
2022/01/17 01:33:52;;;;;;;2.80;2.60;;;23.20;49.40;;;;;;4972940;28;20189;-68
2022/01/17 01:36:26;;;;;;;2.90;2.70;;;23.30;49.40;;;;;;4941321;28;20548;-67
2022/01/17 01:38:52;;;;;;;2.40;2.20;;;23.20;49.40;;;;;;4940747;28;20186;-68
2022/01/17 01:41:17;;;;;;;2.85;2.30;;;23.20;49.40;;;;;;4956443;28;20247;-68
2022/01/17 01:43:43;;;;;;;2.40;2.20;;;23.20;49.30;;;;;;4956889;28;20174;-68
2022/01/17 01:46:11;;;;;;;2.20;2.10;;;23.20;49.40;;;;;;4956291;28;20182;-67
2022/01/17 01:48:37;;;;;;;2.35;2.17;;;23.20;49.30;;;;;;4940081;28;20210;-68
2022/01/17 01:51:03;;;;;;;2.10;2.00;;;23.20;49.40;;;;;;4956125;28;20209;-68
2022/01/17 01:53:29;;;;;;;2.13;2.03;;;23.20;49.40;;;;;;4950329;28;20185;-68
2022/01/17 01:55:58;;;;;;;2.40;2.20;;;23.20;49.30;;;;;;4991775;28;20193;-68
2022/01/17 01:58:26;;;;;;;2.33;2.13;;;23.20;49.20;;;;;;4992988;28;20620;-68
2022/01/17 02:00:52;;;;;;;2.20;2.10;;;23.20;49.10;;;;;;4959717;28;20220;-67
2022/01/17 02:03:19;;;;;;;2.33;2.17;;;23.20;49.20;;;;;;4975575;28;20243;-68
2022/01/17 02:05:45;;;;;;;2.30;2.10;;;23.20;49.20;;;;;;4975435;28;20187;-68
2022/01/17 02:08:12;;;;;;;2.10;2.00;;;23.20;49.10;;;;;;4966099;28;20277;-67
2022/01/17 02:10:39;;;;;;;2.45;2.25;;;23.20;49.20;;;;;;4956403;28;20216;-67
2022/01/17 02:13:05;;;;;;;2.50;2.30;;;23.20;49.70;;;;;;4956454;28;20185;-68
2022/01/17 02:15:31;;;;;;;2.47;2.28;;;23.20;49.20;;;;;;4973294;28;20166;-68
2022/01/17 02:17:58;;;;;;;2.35;2.20;;;23.20;49.20;;;;;;4956241;28;20245;-67
2022/01/17 02:20:43;;;;;;;2.60;2.40;;;23.20;49.10;;;;;;4956068;28;20224;-67
2022/01/17 02:23:10;;;;;;;2.72;2.53;;;23.20;49.10;;;;;;4956283;28;20185;-67
2022/01/17 02:25:36;;;;;;;2.55;2.35;;;23.20;49.10;;;;;;4955870;28;20182;-67
2022/01/17 02:28:03;;;;;;;2.30;2.10;;;23.20;49.10;;;;;;4956434;28;20606;-68
2022/01/17 02:30:32;;;;;;;2.10;2.00;;;23.20;49.10;;;;;;4955702;28;20267;-67
2022/01/17 02:32:59;;;;;;;2.25;2.05;;;23.20;49.10;;;;;;4956110;28;20190;-68
2022/01/17 02:35:25;;;;;;;2.15;1.98;;;23.20;49.10;;;;;;4955780;28;20325;-67
2022/01/17 02:37:52;;;;;;;2.30;2.10;;;23.20;49.10;;;;;;4972470;28;20257;-67
2022/01/17 02:40:20;;;;;;;2.13;2.03;;;23.20;49.10;;;;;;4973109;28;20218;-68
2022/01/17 02:43:06;;;;;;;2.13;1.98;;;23.20;49.10;;;;;;4955916;28;20186;-67
2022/01/17 02:45:37;;;;;;;2.30;2.05;;;23.20;49.10;;;;;;4972303;28;20181;-68
2022/01/17 02:48:09;;;;;;;2.83;2.63;;;23.20;49.10;;;;;;4955978;28;20699;-67
2022/01/17 02:50:36;;;;;;;2.55;2.35;;;23.20;49.10;;;;;;4955878;28;20304;-68
2022/01/17 02:53:08;;;;;;;2.55;2.35;;;23.20;49.10;;;;;;4956220;28;20181;-68
2022/01/17 02:55:33;;;;;;;2.50;2.30;;;23.20;49.10;;;;;;4956112;28;20182;-67
2022/01/17 02:57:59;;;;;;;2.72;2.53;;;23.20;49.10;;;;;;4955787;28;20185;-68
2022/01/17 03:00:25;;;;;;;2.60;2.40;;;23.10;49.00;;;;;;4955662;28;20253;-67
2022/01/17 03:02:51;;;;;;;2.50;2.30;;;23.20;49.10;;;;;;4956091;28;20645;-68
2022/01/17 03:05:19;;;;;;;2.50;2.30;;;23.20;49.10;;;;;;4972832;28;20269;-68
2022/01/17 03:07:48;;;;;;;2.40;2.20;;;23.20;49.10;;;;;;4971910;28;20200;-68
2022/01/17 03:13:19;;;;;;;1.95;1.75;;;23.20;49.10;;;;;;4972945;28;20181;-67
2022/01/17 03:15:54;;;;;;;2.20;2.00;;;23.20;49.20;;;;;;4955580;28;20189;-68
2022/01/17 03:18:20;;;;;;;2.58;2.38;;;23.20;49.10;;;;;;4939747;28;20174;-68
2022/01/17 03:20:46;;;;;;;2.60;2.40;;;23.20;49.10;;;;;;4958102;28;20202;-68
2022/01/17 03:23:12;;;;;;;2.60;2.40;;;23.20;49.20;;;;;;4959077;28;20178;-68
2022/01/17 03:25:38;;;;;;;2.30;2.20;;;23.10;49.00;;;;;;4958801;28;20221;-68
2022/01/17 03:28:04;;;;;;;3.38;2.22;;;23.10;49.20;;;;;;4952194;28;20202;-68
2022/01/17 03:30:33;;;;;;;3.53;2.58;;;23.10;49.20;;;;;;4958890;28;20228;-67
2022/01/17 03:33:07;;;;;;;1.95;1.85;;;23.10;49.10;;;;;;4958974;28;20190;-68
2022/01/17 03:35:33;;;;;;;2.15;2.05;;;23.20;49.30;;;;;;4942988;28;20224;-67
2022/01/17 03:37:59;;;;;;;2.50;2.30;;;23.20;49.30;;;;;;4941311;28;20186;-67
2022/01/17 03:40:25;;;;;;;2.10;2.00;;;23.10;49.10;;;;;;4942841;28;20233;-67
2022/01/17 03:42:51;;;;;;;2.15;2.00;;;23.20;49.40;;;;;;4942750;28;20221;-67
2022/01/17 03:45:17;;;;;;;2.20;2.00;;;23.10;49.20;;;;;;4958526;28;20192;-67
2022/01/17 03:47:49;;;;;;;2.00;1.90;;;23.10;49.20;;;;;;4958491;28;20190;-67
2022/01/17 03:50:20;;;;;;;2.13;1.73;;;23.10;49.20;;;;;;4942365;28;20217;-68
2022/01/17 03:52:47;;;;;;;2.00;1.90;;;23.10;49.20;;;;;;4975850;28;20162;-68
2022/01/17 03:55:18;;;;;;;2.00;1.90;;;23.10;49.20;;;;;;4942517;28;20213;-68
2022/01/17 03:57:44;;;;;;;2.10;2.00;;;23.10;49.30;;;;;;4958334;28;20261;-67
2022/01/17 04:00:18;;;;;;;1.85;1.75;;;23.10;49.30;;;;;;4942292;28;20213;-68
2022/01/17 04:02:44;;;;;;;2.20;2.00;;;23.10;49.30;;;;;;4942430;28;20198;-68
2022/01/17 04:05:10;;;;;;;1.98;1.88;;;23.10;49.30;;;;;;4942225;28;20204;-68
2022/01/17 04:07:36;;;;;;;2.38;2.20;;;23.10;49.30;;;;;;4942412;28;20275;-68
2022/01/17 04:10:04;;;;;;;2.45;2.25;;;23.10;49.40;;;;;;4975482;28;20201;-68
2022/01/17 04:12:29;;;;;;;2.25;2.05;;;23.10;49.40;;;;;;4942445;28;20194;-68
2022/01/17 04:14:56;;;;;;;2.35;2.15;;;23.10;49.40;;;;;;4957731;28;20244;-67
2022/01/17 04:17:29;;;;;;;2.30;2.15;;;23.10;49.80;;;;;;4975263;28;20182;-68
2022/01/17 04:20:09;;;;;;;2.10;1.90;;;23.10;49.40;;;;;;4975510;28;20185;-67
2022/01/17 04:22:41;;;;;;;2.05;1.95;;;23.10;49.30;;;;;;4975210;28;20170;-67
2022/01/17 04:25:08;;;;;;;2.22;2.13;;;23.10;49.40;;;;;;4957664;28;20186;-68
2022/01/17 04:27:35;;;;;;;1.50;1.40;;;23.10;49.30;;;;;;4942188;28;20182;-68
2022/01/17 04:30:06;;;;;;;1.70;1.60;;;23.10;49.40;;;;;;4974867;28;20209;-68
2022/01/17 04:32:32;;;;;;;1.92;1.83;;;23.10;49.40;;;;;;4956993;28;20244;-68
2022/01/17 04:34:57;;;;;;;2.10;1.90;;;23.10;49.50;;;;;;4957504;28;20200;-68
2022/01/17 04:37:23;;;;;;;1.67;1.58;;;23.10;49.40;;;;;;4941594;28;20186;-68
2022/01/17 04:39:49;;;;;;;2.03;1.85;;;23.10;49.40;;;;;;4941501;28;20237;-67
2022/01/17 04:42:17;;;;;;;2.00;1.90;;;23.10;49.40;;;;;;4957484;28;20677;-68
2022/01/17 04:47:31;;;;;;;2.17;2.08;;;23.10;49.50;;;;;;4974759;28;20261;-68
2022/01/17 04:49:58;;;;;;;2.45;2.25;;;23.10;49.40;;;;;;4973456;28;20216;-68
2022/01/17 04:52:26;;;;;;;2.30;2.10;;;23.10;49.40;;;;;;4957588;28;20276;-68
2022/01/17 04:54:54;;;;;;;2.13;2.03;;;23.10;49.50;;;;;;4941675;28;20276;-67
2022/01/17 04:57:21;;;;;;;1.92;1.83;;;23.10;49.50;;;;;;4957373;28;20174;-68
2022/01/17 04:59:49;;;;;;;1.88;1.77;;;23.10;49.50;;;;;;4940969;28;20205;-68
2022/01/17 05:02:17;;;;;;;1.98;1.88;;;23.10;49.50;;;;;;4974855;28;20185;-68
2022/01/17 05:04:47;;;;;;;1.73;1.63;;;23.10;49.50;;;;;;4956955;28;20194;-68
2022/01/17 05:07:14;;;;;;;1.90;1.80;;;23.10;49.50;;;;;;4957130;28;20182;-67
2022/01/17 05:09:42;;;;;;;2.00;1.90;;;23.10;49.60;;;;;;4974240;28;20221;-67
2022/01/17 05:12:10;;;;;;;1.83;1.73;;;23.10;49.60;;;;;;4974290;28;20891;-67
2022/01/17 05:14:39;;;;;;;1.98;1.88;;;23.10;49.60;;;;;;4956718;28;20280;-67
2022/01/17 05:17:22;;;;;;;2.05;1.90;;;23.10;49.60;;;;;;4956872;28;20200;-67
2022/01/17 05:19:54;;;;;;;2.10;2.00;;;23.10;49.50;;;;;;4956769;28;20186;-67
2022/01/17 05:22:21;;;;;;;2.40;2.20;;;23.10;49.60;;;;;;4956878;28;20196;-67
2022/01/17 05:24:48;;;;;;;1.80;1.70;;;23.10;49.60;;;;;;4956709;28;20693;-67
2022/01/17 05:27:14;;;;;;;2.38;2.08;;;23.10;49.60;;;;;;4957003;28;20610;-69
2022/01/17 05:29:40;;;;;;;2.80;1.80;;;23.10;49.40;;;;;;4973140;28;20221;-68
2022/01/17 05:32:07;;;;;;;2.83;2.10;;;23.20;49.40;;;;;;4956860;28;20220;-68
2022/01/17 05:34:40;;;;;;;2.00;1.90;;;23.10;49.50;;;;;;4956859;28;20247;-68
2022/01/17 05:37:08;;;;;;;2.25;2.08;;;23.10;49.70;;;;;;4974188;28;20174;-68
2022/01/17 05:39:34;;;;;;;3.40;2.13;;;23.10;49.70;;;;;;4955955;28;20588;-68
2022/01/17 05:42:00;;;;;;;2.13;1.90;;;23.10;49.70;;;;;;4973762;28;20301;-68
2022/01/17 05:44:26;;;;;;;1.75;1.65;;;23.10;49.80;;;;;;4956264;28;20272;-68
2022/01/17 05:46:52;;;;;;;1.77;1.67;;;23.10;49.80;;;;;;4956724;28;20181;-67
2022/01/17 05:49:18;;;;;;;1.90;1.80;;;23.10;49.80;;;;;;4956315;28;20225;-68
2022/01/17 05:51:43;;;;;;;2.33;1.77;;;23.10;49.70;;;;;;4956500;28;20204;-68
2022/01/17 05:54:09;;;;;;;1.85;1.70;;;23.10;49.70;;;;;;4956385;28;20202;-67
2022/01/17 05:56:35;;;;;;;5.65;1.77;;;23.10;49.70;;;;;;4972258;28;20182;-67
2022/01/17 05:59:01;;;;;;;2.28;1.80;;;23.20;49.80;;;;;;4956675;28;20189;-68
2022/01/17 06:01:27;;;;;;;2.75;1.77;;;23.20;49.70;;;;;;4940198;28;20214;-68
2022/01/17 06:03:53;;;;;;;1.67;1.58;;;23.10;49.70;;;;;;4940736;28;20185;-67
2022/01/17 06:06:19;;;;;;;3.30;1.90;;;23.10;49.60;;;;;;4973389;28;20259;-67
2022/01/17 06:08:44;;;;;;;2.75;1.88;;;23.20;49.80;;;;;;4956107;28;20227;-67
2022/01/17 06:11:10;;;;;;;3.60;2.05;;;23.10;49.90;;;;;;4956202;28;20209;-67
2022/01/17 06:13:36;;;;;;;4.22;2.20;;;23.10;50.10;;;;;;4956561;28;20189;-67
2022/01/17 06:16:02;;;;;;;3.70;1.80;;;23.10;50.10;;;;;;4956224;28;20185;-68
2022/01/17 06:18:28;;;;;;;4.78;2.25;;;23.10;50.30;;;;;;4956160;28;20193;-68
2022/01/17 06:20:54;;;;;;;2.67;2.05;;;23.10;50.60;;;;;;4956156;28;20220;-68
2022/01/17 06:23:21;;;;;;;3.17;1.95;;;23.10;50.30;;;;;;4955946;28;20197;-68
2022/01/17 06:25:47;;;;;;;2.63;2.00;;;23.10;50.30;;;;;;4939835;28;20288;-68
2022/01/17 06:28:13;;;;;;;2.97;2.10;;;23.10;50.30;;;;;;4956054;28;20193;-68
2022/01/17 06:30:39;;;;;;;5.68;2.20;;;23.10;50.20;;;;;;4955762;28;20248;-68
2022/01/17 06:33:05;;;;;;;2.38;2.17;;;23.10;50.20;;;;;;4955916;28;20688;-68
2022/01/17 06:35:31;;;;;;;2.33;2.10;;;23.10;50.20;;;;;;4972929;28;20182;-68
2022/01/17 06:37:57;;;;;;;2.13;1.90;;;23.10;50.20;;;;;;4956116;28;20273;-68
2022/01/17 06:40:23;;;;;;;2.47;1.90;;;23.10;50.20;;;;;;4956275;28;20300;-67
2022/01/17 06:42:50;;;;;;;2.05;1.90;;;23.10;50.30;;;;;;4956306;28;20244;-67
2022/01/17 06:45:18;;;;;;;2.70;1.80;;;23.10;50.30;;;;;;4940139;28;20189;-68
2022/01/17 06:47:45;;;;;;;3.10;1.80;;;23.10;50.30;;;;;;4956051;28;20197;-68
2022/01/17 06:50:12;;;;;;;2.10;1.90;;;23.10;50.20;;;;;;4955801;28;20228;-68
2022/01/17 06:52:38;;;;;;;2.38;1.95;;;23.10;50.20;;;;;;4973190;28;20273;-68
2022/01/17 06:55:06;;;;;;;2.22;1.60;;;23.10;50.20;;;;;;4957718;28;20185;-69
2022/01/17 06:57:32;;;;;;;2.88;1.90;;;23.10;50.30;;;;;;4959785;28;20192;-68
2022/01/17 06:59:58;;;;;;;2.50;2.08;;;23.10;50.20;;;;;;4959179;28;20198;-68
2022/01/17 07:02:24;;;;;;;2.42;1.88;;;23.10;50.40;;;;;;4976523;28;20203;-68
2022/01/17 07:04:50;;;;;;;2.42;1.85;;;23.10;50.30;;;;;;4958556;28;20201;-68
2022/01/17 07:07:17;;;;;;;3.10;1.85;;;23.10;50.40;;;;;;4958831;28;20186;-68
2022/01/17 07:09:43;;;;;;;1.90;1.80;;;23.10;50.20;;;;;;4957161;28;20209;-68
2022/01/17 07:12:09;;;;;;;2.20;1.80;;;23.10;50.30;;;;;;4943072;28;20218;-68
2022/01/17 07:14:41;;;;;;;2.28;2.08;;;23.10;50.20;;;;;;4959015;28;20235;-68
2022/01/17 07:17:11;;;;;;;2.10;1.90;;;23.00;50.20;;;;;;4975194;28;20209;-68
2022/01/17 07:19:37;;;;;;;1.90;1.75;;;23.10;50.30;;;;;;4959170;28;20273;-68
2022/01/17 07:22:05;;;;;;;2.15;1.75;;;23.10;50.30;;;;;;4959106;28;20286;-68
2022/01/17 07:24:31;;;;;;;1.90;1.80;;;23.10;50.50;;;;;;4942870;28;20191;-68
2022/01/17 07:26:57;;;;;;;1.73;1.63;;;23.10;50.40;;;;;;4976045;28;20248;-68
2022/01/17 07:29:24;;;;;;;3.50;1.90;;;23.10;50.60;;;;;;4974872;28;20228;-67
2022/01/17 07:31:50;;;;;;;1.92;1.60;;;23.10;50.50;;;;;;5001247;23;20233;-71
2022/01/17 07:34:16;;;;;;;1.73;1.63;;;23.10;50.50;;;;;;4975008;28;20186;-70
2022/01/17 07:36:42;;;;;;;1.73;1.63;;;23.10;50.50;;;;;;4973143;28;20193;-71
2022/01/17 07:39:08;;;;;;;2.00;1.70;;;23.10;50.50;;;;;;4973976;28;20194;-70
2022/01/17 07:41:34;;;;;;;2.22;1.70;;;23.10;51.20;;;;;;4977918;28;20221;-69
2022/01/17 07:44:02;;;;;;;1.88;1.70;;;23.10;50.30;;;;;;4974822;28;20213;-71
2022/01/17 07:46:48;;;;;;;1.83;1.52;;;23.10;50.50;;;;;;4958380;28;20196;-71
2022/01/17 07:49:19;;;;;;;1.83;1.70;;;23.10;50.60;;;;;;4939404;29;20217;-71
2022/01/17 07:51:49;;;;;;;1.98;1.80;;;23.10;50.50;;;;;;4989332;28;20366;-69
2022/01/17 07:54:18;;;;;;;1.90;1.80;;;23.00;50.40;;;;;;4974440;28;20650;-69
2022/01/17 07:56:46;;;;;;;2.15;1.98;;;23.00;50.50;;;;;;4958213;28;20190;-70
2022/01/17 07:59:12;;;;;;;2.33;2.13;;;23.00;50.50;;;;;;4974618;28;20205;-71
2022/01/17 08:01:39;;;;;;;1.98;1.80;;;23.00;50.40;;;;;;4958113;28;20236;-70
2022/01/17 08:04:06;;;;;;;1.85;1.65;;;23.00;50.50;;;;;;4973907;28;20192;-70
2022/01/17 08:06:38;;;;;;;1.65;1.33;;;23.00;50.50;;;;;;4972835;28;20373;-71
2022/01/17 08:09:13;;;;;;;1.70;1.60;;;23.00;50.40;;;;;;4989935;28;20300;-71
2022/01/17 08:11:39;;;;;;;1.67;1.58;;;23.10;50.60;;;;;;4957272;28;20716;-71
2022/01/17 08:14:05;;;;;;;1.60;1.50;;;23.00;50.40;;;;;;4975306;28;20189;-71
2022/01/17 08:16:31;;;;;;;2.00;1.70;;;23.10;50.40;;;;;;4958459;28;20212;-70
2022/01/17 08:18:57;;;;;;;1.58;1.48;;;23.00;50.40;;;;;;4974116;28;20190;-70
2022/01/17 08:21:23;;;;;;;1.55;1.45;;;23.10;50.50;;;;;;4974029;28;20228;-70
2022/01/17 08:23:52;;;;;;;1.73;1.63;;;23.00;50.30;;;;;;4958353;28;20181;-71
2022/01/17 08:26:18;;;;;;;1.65;1.55;;;23.10;50.40;;;;;;4973719;28;20645;-71
2022/01/17 08:28:44;;;;;;;1.70;1.58;;;23.00;50.20;;;;;;4973864;28;20193;-71
2022/01/17 08:31:10;;;;;;;2.10;1.70;;;23.00;50.40;;;;;;4973727;28;20222;-70
2022/01/17 08:33:36;;;;;;;1.80;1.70;;;23.10;50.40;;;;;;4974093;28;20197;-71
2022/01/17 08:36:02;;;;;;;1.65;1.55;;;23.00;50.30;;;;;;4957807;28;20188;-71
2022/01/17 08:38:29;;;;;;;1.70;1.60;;;23.10;50.20;;;;;;4973595;28;20244;-70
2022/01/17 08:40:57;;;;;;;1.70;1.60;;;23.10;50.30;;;;;;4957523;28;20210;-71
2022/01/17 08:43:23;;;;;;;1.60;1.50;;;23.10;50.20;;;;;;4974087;28;20237;-71
2022/01/17 08:45:49;;;;;;;1.63;1.52;;;23.10;50.10;;;;;;4973736;28;20190;-71
2022/01/17 08:48:15;;;;;;;1.50;1.40;;;23.10;50.10;;;;;;4974656;28;20192;-71
2022/01/17 08:50:43;;;;;;;1.77;1.67;;;23.10;50.10;;;;;;4973464;28;20229;-71
2022/01/17 08:53:13;;;;;;;1.80;1.70;;;23.10;50.10;;;;;;4957512;28;20732;-71
2022/01/17 08:55:40;;;;;;;1.65;1.55;;;23.10;50.40;;;;;;4973415;28;20634;-70
2022/01/17 08:58:07;;;;;;;1.50;1.40;;;23.10;50.20;;;;;;4973199;28;20621;-71
2022/01/17 09:00:33;;;;;;;1.60;1.50;;;23.00;50.10;;;;;;4973489;28;20210;-71
2022/01/17 09:03:02;;;;;;;1.60;1.50;;;23.10;50.20;;;;;;4974254;28;20268;-71
2022/01/17 09:05:30;;;;;;;1.70;1.60;;;23.10;50.30;;;;;;4972976;28;20210;-71
2022/01/17 09:07:56;;;;;;;2.90;1.70;;;23.10;50.10;;;;;;4972970;28;20192;-71
2022/01/17 09:10:22;;;;;;;1.45;1.35;;;23.20;50.30;;;;;;4989144;28;20298;-71
2022/01/17 09:12:49;;;;;;;1.55;1.45;;;23.20;50.30;;;;;;4972967;28;20193;-71
2022/01/17 09:15:15;;;;;;;1.27;1.17;;;23.10;50.10;;;;;;4973896;28;20228;-71
2022/01/17 09:17:41;;;;;;;1.60;1.50;;;23.20;50.20;;;;;;4972580;28;20583;-71
2022/01/17 09:20:07;;;;;;;2.03;1.58;;;23.20;50.20;;;;;;4974028;28;20186;-71
2022/01/17 09:22:33;;;;;;;1.70;1.60;;;23.10;50.20;;;;;;4972735;28;20225;-72
2022/01/17 09:24:59;;;;;;;1.83;1.52;;;23.10;50.20;;;;;;4973916;28;20193;-71
2022/01/17 09:27:26;;;;;;;1.85;1.75;;;23.20;50.20;;;;;;4952922;28;20654;-71
2022/01/17 09:29:53;;;;;;;2.00;1.60;;;23.20;50.20;;;;;;4957146;28;20213;-72
2022/01/17 09:32:19;;;;;;;2.13;1.35;;;23.20;50.30;;;;;;4972937;28;20206;-71
2022/01/17 09:34:46;;;;;;;1.95;1.70;;;23.20;50.20;;;;;;4972894;28;20189;-71
2022/01/17 09:37:13;;;;;;;1.80;1.70;;;23.10;50.10;;;;;;4972584;28;20196;-71
2022/01/17 09:39:39;;;;;;;1.70;1.60;;;23.10;50.20;;;;;;4972784;28;20214;-71
2022/01/17 09:42:08;;;;;;;1.95;1.85;;;23.20;50.30;;;;;;4956425;28;20692;-71
2022/01/17 09:44:35;;;;;;;1.55;1.45;;;23.10;50.20;;;;;;4972655;28;20189;-71
2022/01/17 09:47:09;;;;;;;1.75;1.65;;;23.20;50.30;;;;;;4956245;28;20200;-71
2022/01/17 09:49:49;;;;;;;1.88;1.60;;;23.10;50.20;;;;;;4956875;28;20210;-71
2022/01/17 09:52:34;;;;;;;2.17;1.50;;;23.20;50.30;;;;;;4965528;28;20229;-71
2022/01/17 09:55:25;;;;;;;3.50;1.50;;;23.20;50.30;;;;;;4969228;28;20179;-71
2022/01/17 09:58:09;;;;;;;2.13;1.33;;;23.20;50.30;;;;;;4962657;28;20821;-71
2022/01/17 10:00:44;;;;;;;2.05;1.60;;;23.20;50.30;;;;;;4973611;28;20205;-71
2022/01/17 10:03:16;;;;;;;1.50;1.40;;;23.20;50.30;;;;;;4973552;28;20668;-71
2022/01/17 10:05:43;;;;;;;2.53;1.55;;;23.20;50.30;;;;;;4972550;28;20196;-71
2022/01/17 10:08:16;;;;;;;1.30;1.17;;;23.20;50.30;;;;;;4953358;28;20273;-71
2022/01/17 10:10:57;;;;;;;2.38;1.42;;;23.00;48.90;;;;;;4936956;29;20320;-72
2022/01/17 10:13:45;;;;;;;3.15;1.50;;;23.00;50.00;;;;;;4937573;28;20198;-71
2022/01/17 10:16:20;;;;;;;3.10;1.50;;;23.10;49.80;;;;;;4988382;28;20174;-71
2022/01/17 10:18:54;;;;;;;1.88;1.52;;;23.10;49.70;;;;;;4972233;28;20231;-71
2022/01/17 10:21:47;;;;;;;3.53;1.85;;;23.20;49.70;;;;;;4956211;28;20220;-72
2022/01/17 10:35:26;;;;;;;1.55;1.45;;;23.20;49.90;;;;;;4971731;28;20194;-72
2022/01/17 10:38:05;;;;;;;1.85;1.60;;;23.20;49.90;;;;;;4975442;28;20197;-71
2022/01/17 10:40:33;;;;;;;3.08;1.70;;;23.20;50.00;;;;;;4960109;28;20199;-71
2022/01/17 10:43:01;;;;;;;2.58;1.55;;;23.20;50.20;;;;;;4959804;28;20231;-72
2022/01/17 10:45:35;;;;;;;1.50;1.33;;;23.20;50.10;;;;;;4975842;28;20190;-71
2022/01/17 10:48:03;;;;;;;2.08;1.30;;;23.20;50.20;;;;;;4957624;28;20197;-71
2022/01/17 10:50:35;;;;;;;1.92;1.45;;;23.20;50.30;;;;;;4956706;28;20218;-71
2022/01/17 10:53:06;;;;;;;3.17;1.60;;;23.20;50.30;;;;;;4956448;28;20215;-72
2022/01/17 10:55:37;;;;;;;1.98;1.33;;;23.20;50.30;;;;;;4968940;28;20186;-72
2022/01/17 10:58:08;;;;;;;4.63;1.48;;;23.20;50.40;;;;;;4956151;28;20193;-71
2022/01/17 11:00:45;;;;;;;2.13;1.42;;;23.30;50.40;;;;;;4972356;28;20206;-72
2022/01/17 11:03:16;;;;;;;2.80;1.33;;;23.30;50.50;;;;;;4972978;28;20182;-71
2022/01/17 11:05:46;;;;;;;2.92;1.30;;;23.30;50.60;;;;;;4975079;28;20194;-72
2022/01/17 11:08:16;;;;;;;2.67;1.60;;;23.30;50.50;;;;;;4991442;28;20193;-72
2022/01/17 11:10:45;;;;;;;3.25;1.35;;;23.30;50.60;;;;;;4975399;28;20220;-71
2022/01/17 11:13:20;;;;;;;2.67;1.50;;;23.30;50.90;;;;;;4975270;28;20201;-71
2022/01/17 11:15:53;;;;;;;1.48;1.38;;;23.30;50.60;;;;;;4975444;28;20184;-71
2022/01/17 11:18:23;;;;;;;1.25;1.15;;;23.30;50.60;;;;;;4976359;28;20670;-71
2022/01/17 11:20:57;;;;;;;1.63;1.25;;;23.30;50.60;;;;;;4975115;28;20244;-72
2022/01/17 11:23:25;;;;;;;1.30;1.20;;;23.30;50.60;;;;;;4975196;28;20189;-71
2022/01/17 11:25:55;;;;;;;2.45;1.10;;;23.30;50.60;;;;;;4975000;28;20174;-72
2022/01/17 11:28:40;;;;;;;1.55;1.30;;;23.30;50.60;;;;;;4975040;28;20229;-72
2022/01/17 11:31:12;;;;;;;2.08;1.27;;;23.30;50.60;;;;;;4958929;28;20276;-71
2022/01/17 11:33:40;;;;;;;1.25;1.00;;;23.30;50.60;;;;;;4975057;28;20280;-71
2022/01/17 11:36:06;;;;;;;2.63;1.15;;;23.30;50.70;;;;;;4974192;28;20260;-70
2022/01/17 11:38:45;;;;;;;1.55;1.45;;;23.30;50.60;;;;;;4975015;28;20182;-71
2022/01/17 11:41:35;;;;;;;3.08;1.48;;;23.30;50.70;;;;;;4975777;28;20233;-71
2022/01/17 11:44:08;;;;;;;1.23;1.13;;;23.40;50.80;;;;;;4958845;28;20729;-70
2022/01/17 11:46:45;;;;;;;2.10;1.20;;;23.30;50.60;;;;;;4975735;28;20216;-70
2022/01/17 11:49:11;;;;;;;1.70;1.40;;;23.40;50.80;;;;;;4974651;28;20216;-71
2022/01/17 11:51:46;;;;;;;1.65;1.23;;;23.40;50.80;;;;;;4952463;28;20225;-71
2022/01/17 11:54:22;;;;;;;2.60;1.38;;;23.30;50.80;;;;;;4970220;28;20200;-70
2022/01/17 11:57:06;;;;;;;3.90;1.23;;;23.40;51.00;;;;;;4985635;28;20608;-70
2022/01/17 11:59:42;;;;;;;2.97;1.30;;;23.30;51.00;;;;;;4958406;28;20210;-71
2022/01/17 12:02:28;;;;;;;2.10;1.42;;;23.30;51.00;;;;;;4975467;28;20323;-71
2022/01/17 12:05:06;;;;;;;1.35;1.10;;;23.30;51.00;;;;;;4974341;28;20178;-71
2022/01/17 12:07:54;;;;;;;4.03;1.30;;;23.30;50.90;;;;;;4954857;28;20209;-71
2022/01/17 12:10:37;;;;;;;2.50;1.27;;;23.40;51.00;;;;;;4974014;28;20194;-71
2022/01/17 12:13:13;;;;;;;2.13;1.35;;;23.40;51.10;;;;;;4958367;28;20189;-71
2022/01/17 12:16:18;;;;;;;4.70;1.33;;;23.40;51.20;;;;;;4975229;28;20185;-70
2022/01/17 12:18:54;;;;;;;3.72;1.42;;;23.40;51.20;;;;;;4975156;28;20192;-71
2022/01/17 12:21:30;;;;;;;2.45;1.60;;;23.40;51.30;;;;;;4973782;28;20299;-71
2022/01/17 12:24:15;;;;;;;1.35;1.15;;;23.40;51.30;;;;;;4956843;28;20182;-71
2022/01/17 12:26:42;;;;;;;2.05;1.13;;;23.40;51.30;;;;;;4973842;28;20205;-70
2022/01/17 12:29:08;;;;;;;3.20;1.30;;;23.40;51.40;;;;;;4973938;28;20228;-71
2022/01/17 12:31:47;;;;;;;5.40;1.40;;;23.40;51.40;;;;;;4973562;28;20309;-72
2022/01/17 12:34:19;;;;;;;5.53;1.58;;;23.40;51.40;;;;;;4973125;28;20185;-68
2022/01/17 12:36:47;;;;;;;5.00;1.58;;;23.30;51.60;;;;;;4966916;28;20613;-71
2022/01/17 12:39:26;;;;;;;4.00;1.40;;;23.40;51.70;;;;;;4973974;28;20646;-72
2022/01/17 12:42:03;;;;;;;3.03;1.20;;;23.40;51.60;;;;;;4989739;28;20217;-71
2022/01/17 12:44:32;;;;;;;1.55;1.10;;;23.40;51.60;;;;;;4970011;28;20557;-71
2022/01/17 12:47:04;;;;;;;1.88;1.27;;;23.40;51.50;;;;;;4990015;28;20244;-71
2022/01/17 12:49:31;;;;;;;2.85;1.65;;;23.40;51.50;;;;;;4973559;28;20213;-72
2022/01/17 12:51:58;;;;;;;2.38;1.58;;;23.40;51.50;;;;;;4973238;28;20209;-71
2022/01/17 12:54:29;;;;;;;3.35;1.17;;;23.40;51.40;;;;;;4957439;28;20336;-71
2022/01/17 12:57:01;;;;;;;2.40;1.55;;;23.40;51.50;;;;;;4972905;28;20189;-71
2022/01/17 12:59:27;;;;;;;2.50;1.10;;;23.40;51.40;;;;;;4953363;28;20198;-71
2022/01/17 13:02:01;;;;;;;3.78;1.35;;;23.40;51.60;;;;;;4970488;28;20205;-71
2022/01/17 13:04:32;;;;;;;2.80;1.05;;;23.40;51.60;;;;;;4954048;28;20193;-71
2022/01/17 13:06:57;;;;;;;3.78;1.45;;;23.40;51.60;;;;;;4972315;28;20201;-71
2022/01/17 13:09:26;;;;;;;3.08;1.50;;;23.40;51.60;;;;;;4972399;28;20213;-71
2022/01/17 13:11:59;;;;;;;1.48;1.30;;;23.40;51.50;;;;;;4956253;28;20241;-71
2022/01/17 13:14:25;;;;;;;4.00;1.60;;;23.40;51.50;;;;;;4972362;28;20257;-71
2022/01/17 13:16:52;;;;;;;2.00;1.27;;;23.40;51.50;;;;;;4972830;28;20329;-72
2022/01/17 13:19:19;;;;;;;2.67;1.38;;;23.40;51.40;;;;;;4962433;28;20255;-72
2022/01/17 13:21:49;;;;;;;2.67;1.40;;;23.40;51.40;;;;;;4974257;28;20212;-71
2022/01/17 13:24:32;;;;;;;2.97;1.58;;;23.40;51.40;;;;;;4973109;28;20720;-70